createdAt,value
2022-11-26T00:00:12.266Z,90.50
2022-11-26T00:00:56.952Z,90.50
2022-11-26T00:01:32.123Z,90.50
2022-11-26T00:02:14.395Z,90.50
2022-11-26T00:02:48.396Z,90.50
2022-11-26T00:03:22.750Z,90.60
2022-11-26T00:03:57.582Z,90.60
2022-11-26T00:04:31.926Z,90.60
2022-11-26T00:05:09.109Z,90.60
2022-11-26T00:05:43.460Z,90.60
2022-11-26T00:06:23.610Z,90.60
2022-11-26T00:06:58.882Z,90.50
2022-11-26T00:07:33.459Z,90.60
2022-11-26T00:08:14.713Z,90.60
2022-11-26T00:08:48.817Z,90.60
2022-11-26T00:09:25.568Z,90.70
2022-11-26T00:09:59.378Z,90.70
2022-11-26T00:10:36.604Z,90.80
2022-11-26T00:11:13.760Z,90.80
2022-11-26T00:11:46.496Z,90.80
2022-11-26T00:12:23.345Z,90.70
2022-11-26T00:12:57.074Z,90.60
2022-11-26T00:13:32.471Z,90.60
2022-11-26T00:14:10.324Z,90.50
2022-11-26T00:14:44.606Z,90.40
2022-11-26T00:15:21.133Z,90.40
2022-11-26T00:15:54.726Z,90.50
2022-11-26T00:16:29.749Z,90.50
2022-11-26T00:17:03.395Z,90.50
2022-11-26T00:17:36.919Z,90.60
2022-11-26T00:18:10.885Z,90.60
2022-11-26T00:18:44.489Z,90.70
2022-11-26T00:19:18.430Z,90.70
2022-11-26T00:19:53.243Z,90.80
2022-11-26T00:20:31.245Z,90.80
2022-11-26T00:21:04.856Z,90.80
2022-11-26T00:21:39.872Z,90.70
2022-11-26T00:22:19.436Z,90.70
2022-11-26T00:22:54.657Z,90.80
2022-11-26T00:23:30.018Z,90.80
2022-11-26T00:24:04.712Z,90.70
2022-11-26T00:24:38.820Z,90.70
2022-11-26T00:25:17.161Z,90.70
2022-11-26T00:25:52.507Z,90.70
2022-11-26T00:26:25.746Z,90.80
2022-11-26T00:27:00.540Z,90.80
2022-11-26T00:27:36.126Z,90.90
2022-11-26T00:28:23.957Z,90.90
2022-11-26T00:29:00.937Z,90.90
2022-11-26T00:29:34.783Z,90.90
2022-11-26T00:30:14.699Z,90.90
2022-11-26T00:30:49.372Z,90.90
2022-11-26T00:31:24.054Z,90.90
2022-11-26T00:31:57.662Z,90.90
2022-11-26T00:32:30.670Z,90.90
2022-11-26T00:33:05.560Z,90.90
2022-11-26T00:33:38.524Z,91.00
2022-11-26T00:34:11.547Z,91.00
2022-11-26T00:34:45.167Z,91.00
2022-11-26T00:35:18.324Z,91.00
2022-11-26T00:35:54.623Z,91.00
2022-11-26T00:36:30.137Z,91.20
2022-11-26T00:37:04.328Z,90.90
2022-11-26T00:37:40.137Z,90.90
2022-11-26T00:38:15.513Z,90.80
2022-11-26T00:38:52.505Z,90.70
2022-11-26T00:39:26.052Z,90.60
2022-11-26T00:39:59.165Z,90.60
2022-11-26T00:40:34.056Z,90.60
2022-11-26T00:41:14.536Z,90.60
2022-11-26T00:41:50.760Z,90.60
2022-11-26T00:42:24.779Z,90.60
2022-11-26T00:43:01.798Z,90.60
2022-11-26T00:43:35.599Z,90.60
2022-11-26T00:44:16.196Z,90.50
2022-11-26T00:44:50.885Z,90.50
2022-11-26T00:45:24.668Z,90.40
2022-11-26T00:45:58.915Z,90.40
2022-11-26T00:46:32.711Z,90.60
2022-11-26T00:47:06.067Z,90.40
2022-11-26T00:47:39.470Z,90.50
2022-11-26T00:48:13.457Z,90.50
2022-11-26T00:48:46.931Z,90.60
2022-11-26T00:49:20.931Z,90.70
2022-11-26T00:49:55.183Z,90.70
2022-11-26T00:50:30.131Z,90.70
2022-11-26T00:51:03.418Z,90.60
2022-11-26T00:51:36.676Z,90.70
2022-11-26T00:52:21.935Z,90.70
2022-11-26T00:52:56.605Z,90.70
2022-11-26T00:53:29.118Z,90.80
2022-11-26T00:54:04.453Z,90.90
2022-11-26T00:54:38.815Z,90.90
2022-11-26T00:55:17.527Z,90.90
2022-11-26T00:55:51.371Z,90.80
2022-11-26T00:56:25.588Z,90.80
2022-11-26T00:56:59.580Z,90.80
2022-11-26T00:57:33.384Z,90.90
2022-11-26T00:58:12.376Z,90.90
2022-11-26T00:58:47.204Z,90.80
2022-11-26T00:59:22.158Z,90.80
2022-11-26T00:59:55.607Z,90.70
2022-11-26T01:00:31.146Z,90.70
2022-11-26T01:01:04.448Z,90.80
2022-11-26T01:01:38.574Z,90.80
2022-11-26T01:02:13.536Z,90.90
2022-11-26T01:02:47.407Z,90.90
2022-11-26T01:03:20.488Z,90.90
2022-11-26T01:03:55.582Z,90.90
2022-11-26T01:04:29.772Z,90.90
2022-11-26T01:05:03.408Z,90.90
2022-11-26T01:05:37.821Z,90.90
2022-11-26T01:06:14.797Z,90.90
2022-11-26T01:06:48.568Z,90.90
2022-11-26T01:07:22.729Z,90.90
2022-11-26T01:07:59.683Z,91.00
2022-11-26T01:08:34.943Z,91.00
2022-11-26T01:09:08.966Z,91.00
2022-11-26T01:09:44.468Z,91.10
2022-11-26T01:10:19.192Z,91.10
2022-11-26T01:10:53.316Z,91.00
2022-11-26T01:11:26.925Z,91.00
2022-11-26T01:12:00.348Z,90.90
2022-11-26T01:12:34.983Z,90.80
2022-11-26T01:13:11.405Z,90.80
2022-11-26T01:13:46.734Z,90.70
2022-11-26T01:14:19.695Z,90.60
2022-11-26T01:14:53.704Z,90.60
2022-11-26T01:15:28.018Z,90.60
2022-11-26T01:16:01.795Z,90.70
2022-11-26T01:16:36.717Z,90.70
2022-11-26T01:17:12.201Z,90.70
2022-11-26T01:17:45.365Z,90.60
2022-11-26T01:18:21.329Z,90.50
2022-11-26T01:18:56.483Z,90.50
2022-11-26T01:19:30.535Z,90.50
2022-11-26T01:20:05.975Z,90.60
2022-11-26T01:20:40.553Z,90.60
2022-11-26T01:21:14.606Z,90.70
2022-11-26T01:21:48.588Z,90.80
2022-11-26T01:22:22.890Z,90.80
2022-11-26T01:22:56.536Z,90.80
2022-11-26T01:23:30.862Z,90.80
2022-11-26T01:24:04.850Z,90.80
2022-11-26T01:24:38.361Z,90.80
2022-11-26T01:25:12.568Z,90.70
2022-11-26T01:25:47.517Z,90.70
2022-11-26T01:26:22.402Z,90.60
2022-11-26T01:26:55.572Z,90.60
2022-11-26T01:27:30.025Z,90.50
2022-11-26T01:28:03.912Z,90.50
2022-11-26T01:28:38.766Z,90.50
2022-11-26T01:29:16.015Z,90.40
2022-11-26T01:29:50.279Z,90.40
2022-11-26T01:30:24.573Z,90.30
2022-11-26T01:30:58.651Z,90.30
2022-11-26T01:31:32.080Z,90.20
2022-11-26T01:32:05.364Z,90.20
2022-11-26T01:32:40.363Z,90.30
2022-11-26T01:33:14.950Z,90.40
2022-11-26T01:33:47.969Z,90.40
2022-11-26T01:34:23.695Z,90.40
2022-11-26T01:34:57.896Z,90.40
2022-11-26T01:35:31.982Z,90.40
2022-11-26T01:36:08.410Z,90.50
2022-11-26T01:36:42.844Z,90.50
2022-11-26T01:37:16.397Z,90.50
2022-11-26T01:37:50.747Z,90.50
2022-11-26T01:38:24.263Z,90.50
2022-11-26T01:38:59.222Z,90.50
2022-11-26T01:39:33.923Z,90.60
2022-11-26T01:40:23.070Z,90.60
2022-11-26T01:41:11.833Z,90.60
2022-11-26T01:41:46.887Z,90.60
2022-11-26T01:42:26.635Z,90.60
2022-11-26T01:43:01.846Z,90.60
2022-11-26T01:43:38.273Z,90.60
2022-11-26T01:44:17.717Z,90.50
2022-11-26T01:44:51.640Z,90.50
2022-11-26T01:45:25.194Z,90.60
2022-11-26T01:45:59.906Z,90.50
2022-11-26T01:46:35.178Z,90.50
2022-11-26T01:47:20.644Z,90.40
2022-11-26T01:47:54.830Z,90.40
2022-11-26T01:48:29.849Z,90.50
2022-11-26T01:49:17.103Z,90.50
2022-11-26T01:50:14.686Z,90.60
2022-11-26T01:50:57.498Z,90.60
2022-11-26T01:51:30.563Z,90.70
2022-11-26T01:52:06.682Z,90.80
2022-11-26T01:52:39.806Z,90.70
2022-11-26T01:53:14.757Z,90.70
2022-11-26T01:53:50.958Z,90.60
2022-11-26T01:54:24.675Z,90.50
2022-11-26T01:54:58.592Z,90.50
2022-11-26T01:55:35.421Z,90.60
2022-11-26T01:56:15.015Z,90.70
2022-11-26T01:56:49.158Z,90.70
2022-11-26T01:57:27.067Z,90.60
2022-11-26T01:58:02.012Z,90.60
2022-11-26T01:58:40.025Z,90.60
2022-11-26T01:59:20.400Z,90.70
2022-11-26T01:59:55.968Z,90.60
2022-11-26T02:00:30.006Z,90.60
2022-11-26T02:01:03.721Z,90.60
2022-11-26T02:01:37.176Z,90.50
2022-11-26T02:02:11.003Z,90.50
2022-11-26T02:02:47.912Z,90.50
2022-11-26T02:03:21.518Z,90.40
2022-11-26T02:04:00.489Z,90.40
2022-11-26T02:04:36.734Z,90.40
2022-11-26T02:05:14.210Z,90.40
2022-11-26T02:05:51.252Z,90.50
2022-11-26T02:06:26.459Z,90.50
2022-11-26T02:07:00.330Z,90.50
2022-11-26T02:07:34.742Z,90.50
2022-11-26T02:08:09.799Z,90.50
2022-11-26T02:08:44.187Z,90.50
2022-11-26T02:09:18.901Z,90.60
2022-11-26T02:09:52.188Z,90.60
2022-11-26T02:10:25.501Z,90.70
2022-11-26T02:10:58.620Z,90.70
2022-11-26T02:11:33.255Z,90.70
2022-11-26T02:12:07.003Z,90.70
2022-11-26T02:12:40.532Z,90.70
2022-11-26T02:13:15.477Z,90.60
2022-11-26T02:13:51.036Z,90.50
2022-11-26T02:14:27.349Z,90.40
2022-11-26T02:15:02.044Z,90.50
2022-11-26T02:15:42.458Z,90.50
2022-11-26T02:16:20.007Z,90.50
2022-11-26T02:17:07.234Z,90.50
2022-11-26T02:17:43.795Z,90.50
2022-11-26T02:18:16.955Z,90.50
2022-11-26T02:18:53.888Z,90.60
2022-11-26T02:19:50.037Z,90.60
2022-11-26T02:20:34.494Z,90.50
2022-11-26T02:21:10.289Z,90.30
2022-11-26T02:21:45.791Z,90.30
2022-11-26T02:22:34.893Z,90.30
2022-11-26T02:23:27.873Z,90.40
2022-11-26T02:24:09.336Z,90.40
2022-11-26T02:24:48.802Z,90.50
2022-11-26T02:25:27.276Z,90.40
2022-11-26T02:26:19.426Z,90.30
2022-11-26T02:27:21.477Z,90.20
2022-11-26T02:28:13.160Z,90.20
2022-11-26T02:28:59.446Z,90.20
2022-11-26T02:29:57.104Z,90.20
2022-11-26T02:30:31.766Z,90.20
2022-11-26T02:31:10.474Z,90.30
2022-11-26T02:31:48.013Z,90.40
2022-11-26T02:32:24.997Z,90.40
2022-11-26T02:33:00.735Z,90.50
2022-11-26T02:33:36.945Z,90.50
2022-11-26T02:34:15.080Z,90.50
2022-11-26T02:34:53.309Z,90.50
2022-11-26T02:35:31.585Z,90.50
2022-11-26T02:36:08.759Z,90.60
2022-11-26T02:36:46.363Z,90.70
2022-11-26T02:37:24.100Z,90.70
2022-11-26T02:38:00.045Z,90.80
2022-11-26T02:38:36.729Z,90.80
2022-11-26T02:39:14.035Z,90.90
2022-11-26T02:39:47.744Z,90.90
2022-11-26T02:40:21.019Z,90.90
2022-11-26T02:40:54.546Z,91.00
2022-11-26T02:41:34.016Z,90.90
2022-11-26T02:42:21.751Z,90.90
2022-11-26T02:42:56.397Z,90.80
2022-11-26T02:43:29.696Z,90.70
2022-11-26T02:44:03.232Z,90.70
2022-11-26T02:44:40.921Z,90.60
2022-11-26T02:45:16.943Z,90.60
2022-11-26T02:45:55.030Z,90.60
2022-11-26T02:46:28.186Z,90.70
2022-11-26T02:47:04.359Z,90.70
2022-11-26T02:47:39.178Z,90.70
2022-11-26T02:48:15.195Z,90.70
2022-11-26T02:48:52.759Z,90.80
2022-11-26T02:49:27.305Z,90.70
2022-11-26T02:50:02.985Z,90.70
2022-11-26T02:50:40.454Z,90.70
2022-11-26T02:51:17.489Z,90.70
2022-11-26T02:51:52.386Z,90.70
2022-11-26T02:52:29.150Z,90.70
2022-11-26T02:53:02.782Z,90.70
2022-11-26T02:53:37.264Z,90.60
2022-11-26T02:54:13.399Z,90.60
2022-11-26T02:54:49.205Z,90.60
2022-11-26T02:55:25.891Z,90.60
2022-11-26T02:56:03.221Z,90.50
2022-11-26T02:56:36.708Z,90.50
2022-11-26T02:57:12.635Z,90.60
2022-11-26T02:57:50.638Z,90.70
2022-11-26T02:58:24.162Z,90.70
2022-11-26T02:58:57.640Z,90.80
2022-11-26T02:59:32.732Z,90.80
2022-11-26T03:00:08.531Z,90.70
2022-11-26T03:00:43.573Z,90.80
2022-11-26T03:01:22.515Z,90.80
2022-11-26T03:01:59.698Z,90.90
2022-11-26T03:02:35.919Z,90.80
2022-11-26T03:03:11.729Z,90.80
2022-11-26T03:03:47.402Z,90.70
2022-11-26T03:04:22.268Z,90.80
2022-11-26T03:04:59.170Z,90.80
2022-11-26T03:05:34.234Z,90.80
2022-11-26T03:06:11.545Z,90.80
2022-11-26T03:06:45.862Z,90.80
2022-11-26T03:07:19.620Z,90.70
2022-11-26T03:07:55.083Z,90.70
2022-11-26T03:08:28.806Z,90.60
2022-11-26T03:09:02.721Z,90.50
2022-11-26T03:09:49.170Z,90.50
2022-11-26T03:10:28.283Z,90.50
2022-11-26T03:11:00.845Z,90.50
2022-11-26T03:11:36.028Z,90.50
2022-11-26T03:12:09.231Z,90.50
2022-11-26T03:12:43.044Z,90.60
2022-11-26T03:13:18.737Z,90.60
2022-11-26T03:13:52.241Z,90.60
2022-11-26T03:14:27.813Z,90.70
2022-11-26T03:15:01.999Z,90.70
2022-11-26T03:15:35.615Z,90.70
2022-11-26T03:16:10.315Z,90.80
2022-11-26T03:16:45.424Z,90.70
2022-11-26T03:17:18.501Z,90.60
2022-11-26T03:17:52.561Z,90.60
2022-11-26T03:18:25.630Z,90.60
2022-11-26T03:18:59.091Z,90.60
2022-11-26T03:19:32.024Z,90.60
2022-11-26T03:20:09.599Z,90.60
2022-11-26T03:20:44.109Z,90.60
2022-11-26T03:21:17.180Z,90.60
2022-11-26T03:21:51.293Z,90.60
2022-11-26T03:22:24.370Z,90.70
2022-11-26T03:22:57.431Z,90.70
2022-11-26T03:23:32.254Z,90.80
2022-11-26T03:24:05.982Z,90.90
2022-11-26T03:24:39.891Z,90.90
2022-11-26T03:25:14.504Z,90.90
2022-11-26T03:25:47.509Z,90.90
2022-11-26T03:26:20.542Z,90.80
2022-11-26T03:26:54.562Z,90.80
2022-11-26T03:27:27.923Z,90.80
2022-11-26T03:28:01.461Z,90.80
2022-11-26T03:28:36.713Z,90.70
2022-11-26T03:29:10.517Z,90.70
2022-11-26T03:29:43.541Z,90.70
2022-11-26T03:30:17.386Z,90.60
2022-11-26T03:30:51.433Z,90.70
2022-11-26T03:31:25.160Z,90.70
2022-11-26T03:32:00.931Z,90.60
2022-11-26T03:32:34.443Z,90.50
2022-11-26T03:33:08.070Z,90.40
2022-11-26T03:33:42.402Z,90.40
2022-11-26T03:34:15.912Z,90.30
2022-11-26T03:34:49.583Z,90.30
2022-11-26T03:35:23.402Z,90.30
2022-11-26T03:35:56.917Z,90.30
2022-11-26T03:36:31.477Z,90.30
2022-11-26T03:37:06.027Z,90.30
2022-11-26T03:37:40.919Z,90.30
2022-11-26T03:38:13.971Z,90.30
2022-11-26T03:38:48.192Z,90.30
2022-11-26T03:39:21.283Z,90.40
2022-11-26T03:39:54.853Z,90.30
2022-11-26T03:40:29.571Z,90.30
2022-11-26T03:41:06.313Z,90.20
2022-11-26T03:41:40.405Z,90.20
2022-11-26T03:42:14.459Z,90.20
2022-11-26T03:42:48.481Z,90.10
2022-11-26T03:43:22.163Z,90.00
2022-11-26T03:43:57.272Z,90.00
2022-11-26T03:44:31.730Z,90.10
2022-11-26T03:45:07.867Z,90.10
2022-11-26T03:45:41.489Z,90.10
2022-11-26T03:46:15.397Z,90.20
2022-11-26T03:46:50.620Z,90.10
2022-11-26T03:47:24.776Z,90.00
2022-11-26T03:47:57.753Z,90.00
2022-11-26T03:48:31.952Z,90.00
2022-11-26T03:49:05.504Z,90.00
2022-11-26T03:49:38.520Z,90.00
2022-11-26T03:50:14.315Z,90.10
2022-11-26T03:50:46.624Z,90.10
2022-11-26T03:51:19.659Z,90.10
2022-11-26T03:51:54.232Z,90.10
2022-11-26T03:52:28.299Z,90.00
2022-11-26T03:53:02.386Z,90.00
2022-11-26T03:53:36.003Z,90.00
2022-11-26T03:54:10.109Z,90.00
2022-11-26T03:54:44.827Z,90.10
2022-11-26T03:55:19.614Z,90.10
2022-11-26T03:55:52.619Z,90.20
2022-11-26T03:56:25.595Z,90.20
2022-11-26T03:57:00.299Z,90.20
2022-11-26T03:57:34.006Z,90.40
2022-11-26T03:58:07.041Z,90.20
2022-11-26T03:58:41.796Z,90.30
2022-11-26T03:59:15.897Z,90.30
2022-11-26T03:59:49.406Z,90.30
2022-11-26T04:00:24.486Z,90.30
2022-11-26T04:00:58.054Z,90.30
2022-11-26T04:01:31.518Z,90.30
2022-11-26T04:02:06.894Z,90.30
2022-11-26T04:02:41.837Z,90.50
2022-11-26T04:03:16.038Z,90.10
2022-11-26T04:03:51.217Z,90.00
2022-11-26T04:04:25.225Z,90.00
2022-11-26T04:04:59.070Z,90.10
2022-11-26T04:05:33.312Z,90.00
2022-11-26T04:06:07.551Z,90.10
2022-11-26T04:06:41.120Z,90.00
2022-11-26T04:07:16.197Z,90.10
2022-11-26T04:07:49.250Z,90.10
2022-11-26T04:08:22.685Z,90.20
2022-11-26T04:08:57.468Z,90.20
2022-11-26T04:09:31.079Z,90.20
2022-11-26T04:10:04.660Z,90.20
2022-11-26T04:10:38.433Z,90.20
2022-11-26T04:11:12.096Z,90.10
2022-11-26T04:11:48.261Z,90.00
2022-11-26T04:12:21.771Z,89.80
2022-11-26T04:12:55.833Z,89.60
2022-11-26T04:13:30.785Z,89.60
2022-11-26T04:14:03.734Z,89.60
2022-11-26T04:14:36.213Z,89.70
2022-11-26T04:15:11.148Z,89.80
2022-11-26T04:15:45.170Z,89.50
2022-11-26T04:16:19.014Z,89.10
2022-11-26T04:16:53.075Z,89.20
2022-11-26T04:17:26.282Z,89.30
2022-11-26T04:18:01.234Z,89.20
2022-11-26T04:18:36.434Z,89.10
2022-11-26T04:19:09.922Z,89.10
2022-11-26T04:19:43.025Z,88.90
2022-11-26T04:20:16.848Z,88.70
2022-11-26T04:20:53.321Z,88.50
2022-11-26T04:21:28.173Z,88.40
2022-11-26T04:22:03.015Z,88.40
2022-11-26T04:22:36.315Z,88.40
2022-11-26T04:23:09.330Z,88.40
2022-11-26T04:23:44.119Z,88.30
2022-11-26T04:24:18.260Z,88.10
2022-11-26T04:24:51.878Z,88.10
2022-11-26T04:25:26.755Z,88.10
2022-11-26T04:25:59.783Z,88.10
2022-11-26T04:26:33.271Z,88.00
2022-11-26T04:27:07.432Z,87.90
2022-11-26T04:27:40.861Z,87.90
2022-11-26T04:28:15.737Z,88.10
2022-11-26T04:28:51.263Z,87.90
2022-11-26T04:29:25.342Z,87.80
2022-11-26T04:29:59.035Z,87.90
2022-11-26T04:30:33.208Z,88.10
2022-11-26T04:31:06.929Z,88.10
2022-11-26T04:31:41.751Z,88.10
2022-11-26T04:32:15.795Z,88.10
2022-11-26T04:32:48.369Z,88.10
2022-11-26T04:33:24.163Z,88.20
2022-11-26T04:33:57.281Z,88.10
2022-11-26T04:34:31.151Z,88.00
2022-11-26T04:35:05.876Z,88.10
2022-11-26T04:35:39.226Z,88.10
2022-11-26T04:36:14.346Z,88.10
2022-11-26T04:36:47.455Z,88.20
2022-11-26T04:37:20.368Z,88.50
2022-11-26T04:37:54.918Z,88.50
2022-11-26T04:38:28.192Z,88.50
2022-11-26T04:39:01.844Z,88.50
2022-11-26T04:39:36.171Z,88.40
2022-11-26T04:40:10.547Z,88.50
2022-11-26T04:40:45.776Z,88.30
2022-11-26T04:41:19.249Z,88.20
2022-11-26T04:41:53.659Z,88.10
2022-11-26T04:42:26.939Z,88.50
2022-11-26T04:43:01.398Z,87.80
2022-11-26T04:43:34.890Z,87.60
2022-11-26T04:44:09.157Z,87.60
2022-11-26T04:44:43.427Z,87.50
2022-11-26T04:45:15.912Z,87.50
2022-11-26T04:45:51.131Z,87.50
2022-11-26T04:46:24.912Z,87.50
2022-11-26T04:46:59.140Z,87.60
2022-11-26T04:47:33.786Z,87.70
2022-11-26T04:48:07.149Z,87.70
2022-11-26T04:48:42.336Z,88.00
2022-11-26T04:49:16.634Z,88.00
2022-11-26T04:49:50.126Z,88.10
2022-11-26T04:50:25.397Z,88.10
2022-11-26T04:50:58.959Z,88.20
2022-11-26T04:51:32.576Z,88.20
2022-11-26T04:52:06.514Z,88.20
2022-11-26T04:52:39.939Z,88.20
2022-11-26T04:53:13.699Z,88.10
2022-11-26T04:53:48.203Z,88.20
2022-11-26T04:54:22.407Z,88.30
2022-11-26T04:54:55.088Z,88.50
2022-11-26T04:55:29.766Z,88.50
2022-11-26T04:56:04.256Z,88.60
2022-11-26T04:56:37.988Z,88.60
2022-11-26T04:57:12.691Z,88.50
2022-11-26T04:57:48.752Z,88.60
2022-11-26T04:58:22.352Z,88.60
2022-11-26T04:58:57.259Z,88.50
2022-11-26T04:59:30.868Z,88.50
2022-11-26T05:00:04.551Z,88.60
2022-11-26T05:00:40.063Z,88.50
2022-11-26T05:01:14.432Z,88.60
2022-11-26T05:01:49.974Z,88.60
2022-11-26T05:02:22.894Z,88.60
2022-11-26T05:02:57.528Z,88.70
2022-11-26T05:03:30.814Z,88.90
2022-11-26T05:04:06.132Z,89.00
2022-11-26T05:04:41.005Z,89.10
2022-11-26T05:05:14.719Z,89.10
2022-11-26T05:05:47.730Z,89.10
2022-11-26T05:06:22.292Z,89.00
2022-11-26T05:06:54.860Z,88.80
2022-11-26T05:07:29.095Z,88.60
2022-11-26T05:08:03.238Z,88.50
2022-11-26T05:08:37.267Z,88.40
2022-11-26T05:09:10.682Z,88.40
2022-11-26T05:09:45.390Z,88.50
2022-11-26T05:10:20.186Z,88.70
2022-11-26T05:10:54.305Z,88.70
2022-11-26T05:11:28.251Z,88.60
2022-11-26T05:12:01.598Z,88.60
2022-11-26T05:12:35.395Z,88.40
2022-11-26T05:13:09.349Z,88.40
2022-11-26T05:13:42.204Z,88.40
2022-11-26T05:14:15.922Z,88.50
2022-11-26T05:14:51.048Z,88.70
2022-11-26T05:15:24.439Z,88.80
2022-11-26T05:15:59.519Z,89.00
2022-11-26T05:16:33.066Z,89.00
2022-11-26T05:17:06.699Z,89.00
2022-11-26T05:17:40.768Z,88.80
2022-11-26T05:18:14.639Z,88.80
2022-11-26T05:18:48.701Z,88.80
2022-11-26T05:19:23.914Z,88.90
2022-11-26T05:19:57.918Z,88.90
2022-11-26T05:20:31.533Z,89.00
2022-11-26T05:21:06.086Z,89.00
2022-11-26T05:21:39.761Z,89.10
2022-11-26T20:35:24.869Z,90.40
2022-11-26T20:35:59.474Z,90.60
2022-11-26T20:36:33.570Z,90.80
2022-11-26T20:37:09.276Z,90.80
2022-11-26T20:37:43.603Z,91.00
2022-11-26T20:38:18.313Z,91.20
2022-11-26T20:38:52.244Z,91.30
2022-11-26T20:39:29.384Z,91.30
2022-11-26T20:40:04.171Z,91.40
2022-11-26T20:40:41.285Z,91.50
2022-11-26T20:41:16.240Z,91.40
2022-11-26T20:41:50.298Z,91.40
2022-11-26T20:42:24.917Z,91.40
2022-11-26T20:42:58.471Z,91.50
2022-11-26T20:43:32.440Z,91.40
2022-11-26T20:44:08.229Z,91.40
2022-11-26T20:44:43.006Z,91.50
2022-11-26T20:45:17.078Z,91.60
2022-11-26T20:45:50.159Z,91.70
2022-11-26T20:46:24.518Z,91.60
2022-11-26T20:46:59.909Z,91.60
2022-11-26T20:47:34.498Z,91.60
2022-11-26T20:48:07.745Z,91.70
2022-11-26T20:48:44.320Z,91.80
2022-11-26T20:49:19.066Z,91.90
2022-11-26T20:49:53.177Z,91.90
2022-11-26T20:50:28.577Z,91.90
2022-11-26T20:51:03.414Z,91.80
2022-11-26T20:51:38.229Z,91.80
2022-11-26T20:52:11.984Z,91.80
2022-11-26T20:52:45.799Z,91.70
2022-11-26T20:53:20.411Z,91.70
2022-11-26T20:53:54.521Z,91.60
2022-11-26T20:54:28.607Z,91.60
2022-11-26T20:55:02.830Z,91.60
2022-11-26T20:55:37.382Z,91.70
2022-11-26T20:56:11.710Z,91.70
2022-11-26T20:56:46.203Z,91.70
2022-11-26T20:57:22.046Z,91.70
2022-11-26T20:57:56.858Z,91.70
2022-11-26T20:58:30.561Z,91.70
2022-11-26T20:59:06.077Z,91.70
2022-11-26T20:59:42.589Z,91.70
2022-11-26T21:00:17.743Z,91.60
2022-11-26T21:00:54.649Z,91.60
2022-11-26T21:01:29.561Z,91.60
2022-11-26T21:02:04.564Z,91.50
2022-11-26T21:02:39.330Z,91.60
2022-11-26T21:03:13.416Z,91.60
2022-11-26T21:03:48.648Z,91.70
2022-11-26T21:04:22.888Z,91.70
2022-11-26T21:04:58.041Z,91.70
2022-11-26T21:05:33.790Z,91.60
2022-11-26T21:06:08.471Z,91.50
2022-11-26T21:06:43.113Z,91.50
2022-11-26T21:07:17.368Z,91.50
2022-11-26T21:07:51.148Z,91.60
2022-11-26T21:08:26.461Z,91.60
2022-11-26T21:09:01.011Z,91.60
2022-11-26T21:09:35.007Z,91.70
2022-11-26T21:10:10.881Z,91.70
2022-11-26T21:10:45.639Z,91.70
2022-11-26T21:11:19.392Z,91.70
2022-11-26T21:11:53.410Z,91.70
2022-11-26T21:12:26.515Z,91.70
2022-11-26T21:13:00.529Z,91.80
2022-11-26T21:13:35.507Z,91.80
2022-11-26T21:14:14.626Z,91.80
2022-11-26T21:14:49.374Z,91.80
2022-11-26T21:15:22.708Z,91.80
2022-11-26T21:15:56.857Z,91.80
2022-11-26T21:16:30.344Z,91.80
2022-11-26T21:17:04.390Z,91.80
2022-11-26T21:17:40.733Z,91.80
2022-11-26T21:18:14.365Z,91.90
2022-11-26T21:18:48.082Z,91.90
2022-11-26T21:19:22.839Z,91.90
2022-11-26T21:19:56.825Z,91.90
2022-11-26T21:20:36.082Z,91.90
2022-11-26T21:21:11.971Z,91.80
2022-11-26T21:21:47.446Z,91.80
2022-11-26T21:22:21.750Z,91.80
2022-11-26T21:22:57.093Z,91.80
2022-11-26T21:23:31.833Z,91.80
2022-11-26T21:24:07.707Z,91.80
2022-11-26T21:24:41.186Z,91.80
2022-11-26T21:25:17.177Z,91.80
2022-11-26T21:25:51.436Z,91.70
2022-11-26T21:26:26.590Z,91.70
2022-11-26T21:27:00.624Z,91.60
2022-11-26T21:27:34.822Z,91.60
2022-11-26T21:28:09.791Z,91.50
2022-11-26T21:28:44.285Z,91.50
2022-11-26T21:29:18.953Z,91.40
2022-11-26T21:29:53.130Z,91.40
2022-11-26T21:30:28.589Z,91.40
2022-11-26T21:31:05.135Z,91.40
2022-11-26T21:31:39.148Z,91.40
2022-11-26T21:32:14.395Z,91.40
2022-11-26T21:32:48.230Z,91.40
2022-11-26T21:33:22.897Z,91.50
2022-11-26T21:33:58.606Z,91.40
2022-11-26T21:34:31.753Z,91.40
2022-11-26T21:35:07.818Z,91.30
2022-11-26T21:35:42.200Z,91.30
2022-11-26T21:36:18.301Z,91.30
2022-11-26T21:36:51.420Z,91.30
2022-11-26T21:37:26.508Z,91.30
2022-11-26T21:38:00.337Z,91.30
2022-11-26T21:38:34.977Z,91.30
2022-11-26T21:39:10.300Z,91.20
2022-11-26T21:39:43.955Z,91.20
2022-11-26T21:40:17.968Z,91.10
2022-11-26T21:40:51.565Z,91.10
2022-11-26T21:41:25.711Z,91.10
2022-11-26T21:42:02.019Z,91.10
2022-11-26T21:42:35.995Z,91.10
2022-11-26T21:43:10.631Z,91.10
2022-11-26T21:43:44.420Z,91.10
2022-11-26T21:44:18.780Z,91.10
2022-11-26T21:44:52.901Z,91.10
2022-11-26T21:45:27.778Z,91.10
2022-11-26T21:46:03.113Z,91.10
2022-11-26T21:46:38.775Z,91.00
2022-11-26T21:47:15.784Z,90.90
2022-11-26T21:47:50.134Z,90.90
2022-11-26T21:48:24.455Z,90.80
2022-11-26T21:48:59.654Z,90.70
2022-11-26T21:49:33.722Z,90.70
2022-11-26T21:50:09.197Z,90.70
2022-11-26T21:50:44.792Z,90.70
2022-11-26T21:51:19.909Z,90.80
2022-11-26T21:51:54.255Z,90.80
2022-11-26T21:52:28.980Z,90.90
2022-11-26T21:53:02.794Z,90.90
2022-11-26T21:53:39.125Z,91.00
2022-11-26T21:54:13.053Z,91.30
2022-11-26T21:54:48.402Z,91.10
2022-11-26T21:55:22.816Z,91.10
2022-11-26T21:55:56.944Z,91.40
2022-11-26T21:56:33.362Z,91.20
2022-11-26T21:57:07.999Z,91.30
2022-11-26T21:57:41.687Z,91.30
2022-11-26T21:58:16.536Z,91.30
2022-11-26T21:58:50.409Z,91.30
2022-11-26T21:59:24.415Z,91.30
2022-11-26T21:59:58.615Z,91.30
2022-11-26T22:00:31.665Z,91.20
2022-11-26T22:01:13.327Z,91.10
2022-11-26T22:01:47.694Z,91.10
2022-11-26T22:02:22.975Z,91.10
2022-11-26T22:02:56.847Z,91.10
2022-11-26T22:03:31.316Z,91.10
2022-11-26T22:04:07.284Z,91.10
2022-11-26T22:04:41.284Z,91.10
2022-11-26T22:05:16.238Z,91.10
2022-11-26T22:05:50.072Z,91.10
2022-11-26T22:06:25.672Z,91.00
2022-11-26T22:07:00.584Z,91.00
2022-11-26T22:07:35.450Z,90.90
2022-11-26T22:08:09.092Z,90.90
2022-11-26T22:08:41.888Z,91.00
2022-11-26T22:09:18.270Z,91.00
2022-11-26T22:09:51.782Z,91.10
2022-11-26T22:10:26.330Z,91.00
2022-11-26T22:11:01.732Z,91.00
2022-11-26T22:11:36.700Z,90.90
2022-11-26T22:12:11.858Z,90.90
2022-11-26T22:12:46.210Z,90.90
2022-11-26T22:13:20.184Z,91.00
2022-11-26T22:13:55.017Z,91.00
2022-11-26T22:14:29.226Z,91.10
2022-11-26T22:15:02.761Z,91.10
2022-11-26T22:15:38.126Z,91.10
2022-11-26T22:16:13.133Z,91.20
2022-11-26T22:16:48.305Z,91.20
2022-11-26T22:17:22.975Z,91.20
2022-11-26T22:17:58.223Z,91.20
2022-11-26T22:18:33.453Z,91.10
2022-11-26T22:19:08.193Z,91.20
2022-11-26T22:19:43.582Z,91.20
2022-11-26T22:20:17.516Z,91.20
2022-11-26T22:20:52.237Z,91.10
2022-11-26T22:21:29.976Z,91.10
2022-11-26T22:22:03.591Z,91.10
2022-11-26T22:22:39.177Z,91.10
2022-11-26T22:23:13.295Z,91.10
2022-11-26T22:23:49.023Z,91.10
2022-11-26T22:24:23.317Z,91.10
2022-11-26T22:24:58.496Z,91.10
2022-11-26T22:25:33.265Z,91.00
2022-11-26T22:26:07.244Z,90.90
2022-11-26T22:26:42.131Z,90.90
2022-11-26T22:27:15.890Z,90.90
2022-11-26T22:27:49.934Z,90.90
2022-11-26T22:28:29.690Z,90.80
2022-11-26T22:29:04.261Z,90.80
2022-11-26T22:29:40.058Z,90.70
2022-11-26T22:30:14.942Z,90.70
2022-11-26T22:30:49.052Z,90.70
2022-11-26T22:31:25.386Z,90.70
2022-11-26T22:31:59.650Z,90.60
2022-11-26T22:32:32.796Z,90.60
2022-11-26T22:33:07.324Z,90.60
2022-11-26T22:33:42.308Z,90.60
2022-11-26T22:34:17.698Z,90.80
2022-11-26T22:34:51.659Z,90.50
2022-11-26T22:35:27.176Z,90.50
2022-11-26T22:36:02.210Z,90.40
2022-11-26T22:36:39.124Z,90.40
2022-11-26T22:37:13.940Z,90.40
2022-11-26T22:37:49.160Z,90.30
2022-11-26T22:38:22.776Z,90.30
2022-11-26T22:38:56.068Z,90.30
2022-11-26T22:39:32.460Z,90.40
2022-11-26T22:40:07.731Z,90.40
2022-11-26T22:40:41.790Z,90.50
2022-11-26T22:41:20.911Z,90.50
2022-11-26T22:41:55.230Z,90.60
2022-11-26T22:42:30.438Z,90.60
2022-11-26T22:43:04.077Z,90.60
2022-11-26T22:43:37.528Z,90.70
2022-11-26T22:44:12.286Z,90.60
2022-11-26T22:44:45.763Z,90.70
2022-11-26T22:45:19.316Z,90.70
2022-11-26T22:45:53.199Z,90.80